sensor_id;sensor_type;location;lat;lon;timestamp;temperature;humidity
14079;DHT22;7115;50.150;8.568;2023-04-30T00:01:09;14.00;99.90
14079;DHT22;7115;50.150;8.568;2023-04-30T00:03:36;14.00;99.90
14079;DHT22;7115;50.150;8.568;2023-04-30T00:06:04;14.00;99.90
14079;DHT22;7115;50.150;8.568;2023-04-30T00:08:31;14.00;99.90
14079;DHT22;7115;50.150;8.568;2023-04-30T00:10:58;14.00;99.90
14079;DHT22;7115;50.150;8.568;2023-04-30T00:13:25;14.00;99.90
14079;DHT22;7115;50.150;8.568;2023-04-30T00:15:52;13.90;99.90
14079;DHT22;7115;50.150;8.568;2023-04-30T00:18:19;13.90;99.90
14079;DHT22;7115;50.150;8.568;2023-04-30T00:20:46;13.90;99.90
14079;DHT22;7115;50.150;8.568;2023-04-30T00:23:14;13.90;99.90
14079;DHT22;7115;50.150;8.568;2023-04-30T00:25:41;13.90;99.90
14079;DHT22;7115;50.150;8.568;2023-04-30T00:28:07;13.90;99.90
14079;DHT22;7115;50.150;8.568;2023-04-30T00:30:35;13.90;99.90
14079;DHT22;7115;50.150;8.568;2023-04-30T00:33:01;13.90;99.90
14079;DHT22;7115;50.150;8.568;2023-04-30T00:35:28;13.90;99.90
14079;DHT22;7115;50.150;8.568;2023-04-30T00:37:55;13.90;99.90
14079;DHT22;7115;50.150;8.568;2023-04-30T00:40:23;13.90;99.90
14079;DHT22;7115;50.150;8.568;2023-04-30T00:42:50;13.90;99.90
14079;DHT22;7115;50.150;8.568;2023-04-30T00:45:19;13.90;99.90
14079;DHT22;7115;50.150;8.568;2023-04-30T00:47:47;13.90;99.90
14079;DHT22;7115;50.150;8.568;2023-04-30T00:50:15;13.90;99.90
14079;DHT22;7115;50.150;8.568;2023-04-30T00:52:42;13.90;99.90
14079;DHT22;7115;50.150;8.568;2023-04-30T00:55:10;13.80;99.90
14079;DHT22;7115;50.150;8.568;2023-04-30T00:57:39;13.80;99.90
14079;DHT22;7115;50.150;8.568;2023-04-30T01:00:10;13.80;99.90
14079;DHT22;7115;50.150;8.568;2023-04-30T01:02:37;13.70;99.90
14079;DHT22;7115;50.150;8.568;2023-04-30T01:05:06;13.70;99.90
14079;DHT22;7115;50.150;8.568;2023-04-30T01:07:34;13.60;99.90
14079;DHT22;7115;50.150;8.568;2023-04-30T01:10:01;13.60;99.90
14079;DHT22;7115;50.150;8.568;2023-04-30T01:12:36;13.50;99.90
14079;DHT22;7115;50.150;8.568;2023-04-30T01:15:12;13.50;99.90
14079;DHT22;7115;50.150;8.568;2023-04-30T01:17:47;13.50;99.90
14079;DHT22;7115;50.150;8.568;2023-04-30T01:20:18;13.40;99.90
14079;DHT22;7115;50.150;8.568;2023-04-30T01:22:51;13.40;99.90
14079;DHT22;7115;50.150;8.568;2023-04-30T01:25:52;13.30;99.90
14079;DHT22;7115;50.150;8.568;2023-04-30T01:28:27;13.30;99.90
14079;DHT22;7115;50.150;8.568;2023-04-30T01:30:54;13.20;99.90
14079;DHT22;7115;50.150;8.568;2023-04-30T01:33:21;13.10;99.90
14079;DHT22;7115;50.150;8.568;2023-04-30T01:35:57;13.10;99.90
14079;DHT22;7115;50.150;8.568;2023-04-30T01:38:40;13.00;99.90
14079;DHT22;7115;50.150;8.568;2023-04-30T01:41:19;13.00;99.90
14079;DHT22;7115;50.150;8.568;2023-04-30T01:43:57;12.90;99.90
14079;DHT22;7115;50.150;8.568;2023-04-30T01:46:28;12.90;99.90
14079;DHT22;7115;50.150;8.568;2023-04-30T01:49:03;12.80;99.90
14079;DHT22;7115;50.150;8.568;2023-04-30T01:51:39;12.80;99.90
14079;DHT22;7115;50.150;8.568;2023-04-30T01:54:15;12.70;99.90
14079;DHT22;7115;50.150;8.568;2023-04-30T01:56:47;12.70;99.90
14079;DHT22;7115;50.150;8.568;2023-04-30T01:59:18;12.70;99.90
14079;DHT22;7115;50.150;8.568;2023-04-30T02:01:45;12.70;99.90
14079;DHT22;7115;50.150;8.568;2023-04-30T02:04:12;12.60;99.90
14079;DHT22;7115;50.150;8.568;2023-04-30T02:06:39;12.60;99.90
14079;DHT22;7115;50.150;8.568;2023-04-30T02:09:07;12.60;99.90
14079;DHT22;7115;50.150;8.568;2023-04-30T02:11:36;12.50;99.90
14079;DHT22;7115;50.150;8.568;2023-04-30T02:14:03;12.50;99.90
14079;DHT22;7115;50.150;8.568;2023-04-30T02:16:31;12.50;99.90
14079;DHT22;7115;50.150;8.568;2023-04-30T02:18:58;12.50;99.90
14079;DHT22;7115;50.150;8.568;2023-04-30T02:21:25;12.50;99.90
14079;DHT22;7115;50.150;8.568;2023-04-30T02:23:52;12.50;99.90
14079;DHT22;7115;50.150;8.568;2023-04-30T02:26:19;12.50;99.90
14079;DHT22;7115;50.150;8.568;2023-04-30T02:28:47;12.40;99.90
14079;DHT22;7115;50.150;8.568;2023-04-30T02:31:14;12.40;99.90
14079;DHT22;7115;50.150;8.568;2023-04-30T02:33:42;12.40;99.90
14079;DHT22;7115;50.150;8.568;2023-04-30T02:36:09;12.40;99.90
14079;DHT22;7115;50.150;8.568;2023-04-30T02:38:36;12.40;99.90
14079;DHT22;7115;50.150;8.568;2023-04-30T02:41:03;12.30;99.90
14079;DHT22;7115;50.150;8.568;2023-04-30T02:43:29;12.30;99.90
14079;DHT22;7115;50.150;8.568;2023-04-30T02:45:56;12.30;99.90
14079;DHT22;7115;50.150;8.568;2023-04-30T02:48:23;12.20;99.90
14079;DHT22;7115;50.150;8.568;2023-04-30T02:50:51;12.30;99.90
14079;DHT22;7115;50.150;8.568;2023-04-30T02:53:18;12.20;99.90
14079;DHT22;7115;50.150;8.568;2023-04-30T02:55:45;12.20;99.90
14079;DHT22;7115;50.150;8.568;2023-04-30T02:58:12;12.20;99.90
14079;DHT22;7115;50.150;8.568;2023-04-30T03:00:39;12.20;99.90
14079;DHT22;7115;50.150;8.568;2023-04-30T03:03:06;12.20;99.90
14079;DHT22;7115;50.150;8.568;2023-04-30T03:05:33;12.20;99.90
14079;DHT22;7115;50.150;8.568;2023-04-30T03:08:02;12.10;99.90
14079;DHT22;7115;50.150;8.568;2023-04-30T03:10:28;12.10;99.90
14079;DHT22;7115;50.150;8.568;2023-04-30T03:12:55;12.10;99.90
14079;DHT22;7115;50.150;8.568;2023-04-30T03:15:22;12.10;99.90
14079;DHT22;7115;50.150;8.568;2023-04-30T03:17:49;12.10;99.90
14079;DHT22;7115;50.150;8.568;2023-04-30T03:20:17;12.10;99.90
14079;DHT22;7115;50.150;8.568;2023-04-30T03:22:44;12.10;99.90
14079;DHT22;7115;50.150;8.568;2023-04-30T03:25:13;12.10;99.90
14079;DHT22;7115;50.150;8.568;2023-04-30T03:27:39;12.10;99.90
14079;DHT22;7115;50.150;8.568;2023-04-30T03:30:07;12.10;99.90
14079;DHT22;7115;50.150;8.568;2023-04-30T03:32:34;12.10;99.90
14079;DHT22;7115;50.150;8.568;2023-04-30T03:35:01;12.10;99.90
14079;DHT22;7115;50.150;8.568;2023-04-30T03:37:28;12.10;99.90
14079;DHT22;7115;50.150;8.568;2023-04-30T03:39:55;12.10;99.90
14079;DHT22;7115;50.150;8.568;2023-04-30T03:42:23;12.10;99.90
14079;DHT22;7115;50.150;8.568;2023-04-30T03:44:50;12.10;99.90
14079;DHT22;7115;50.150;8.568;2023-04-30T03:47:17;12.10;99.90
14079;DHT22;7115;50.150;8.568;2023-04-30T03:49:44;12.20;99.90
14079;DHT22;7115;50.150;8.568;2023-04-30T03:52:11;12.20;99.90
14079;DHT22;7115;50.150;8.568;2023-04-30T03:54:37;12.20;99.90
14079;DHT22;7115;50.150;8.568;2023-04-30T03:57:04;12.30;99.90
14079;DHT22;7115;50.150;8.568;2023-04-30T03:59:34;12.20;99.90
14079;DHT22;7115;50.150;8.568;2023-04-30T04:02:01;12.30;99.90
14079;DHT22;7115;50.150;8.568;2023-04-30T04:04:29;12.30;99.90
14079;DHT22;7115;50.150;8.568;2023-04-30T04:06:56;12.30;99.90
14079;DHT22;7115;50.150;8.568;2023-04-30T04:09:23;12.30;99.90
14079;DHT22;7115;50.150;8.568;2023-04-30T04:11:50;12.30;99.90
14079;DHT22;7115;50.150;8.568;2023-04-30T04:14:16;12.30;99.90
14079;DHT22;7115;50.150;8.568;2023-04-30T04:16:45;12.20;99.90
14079;DHT22;7115;50.150;8.568;2023-04-30T04:19:12;12.10;99.90
14079;DHT22;7115;50.150;8.568;2023-04-30T04:21:39;12.10;99.90
14079;DHT22;7115;50.150;8.568;2023-04-30T04:24:06;12.00;99.90
14079;DHT22;7115;50.150;8.568;2023-04-30T04:26:34;12.00;99.90
14079;DHT22;7115;50.150;8.568;2023-04-30T04:29:02;11.90;99.90
14079;DHT22;7115;50.150;8.568;2023-04-30T04:31:30;11.90;99.90
14079;DHT22;7115;50.150;8.568;2023-04-30T04:34:01;11.80;99.90
14079;DHT22;7115;50.150;8.568;2023-04-30T04:36:29;11.70;99.90
14079;DHT22;7115;50.150;8.568;2023-04-30T04:38:56;11.70;99.90
14079;DHT22;7115;50.150;8.568;2023-04-30T04:41:29;11.70;99.90
14079;DHT22;7115;50.150;8.568;2023-04-30T04:43:58;11.70;99.90
14079;DHT22;7115;50.150;8.568;2023-04-30T04:46:25;11.60;99.90
14079;DHT22;7115;50.150;8.568;2023-04-30T04:48:52;11.70;99.90
14079;DHT22;7115;50.150;8.568;2023-04-30T04:51:20;11.70;99.90
14079;DHT22;7115;50.150;8.568;2023-04-30T04:53:47;11.70;99.90
14079;DHT22;7115;50.150;8.568;2023-04-30T04:56:14;11.70;99.90
14079;DHT22;7115;50.150;8.568;2023-04-30T04:58:43;11.70;99.90
14079;DHT22;7115;50.150;8.568;2023-04-30T05:01:10;11.80;99.90
14079;DHT22;7115;50.150;8.568;2023-04-30T05:03:37;11.70;99.90
14079;DHT22;7115;50.150;8.568;2023-04-30T05:06:05;11.70;99.90
14079;DHT22;7115;50.150;8.568;2023-04-30T05:08:33;11.70;99.90
14079;DHT22;7115;50.150;8.568;2023-04-30T05:11:00;11.80;99.90
14079;DHT22;7115;50.150;8.568;2023-04-30T05:13:27;11.80;99.90
14079;DHT22;7115;50.150;8.568;2023-04-30T05:15:54;11.80;99.90
14079;DHT22;7115;50.150;8.568;2023-04-30T05:18:21;11.80;99.90
14079;DHT22;7115;50.150;8.568;2023-04-30T05:20:48;11.90;99.90
14079;DHT22;7115;50.150;8.568;2023-04-30T05:23:15;11.90;99.90
14079;DHT22;7115;50.150;8.568;2023-04-30T05:25:43;11.90;99.90
14079;DHT22;7115;50.150;8.568;2023-04-30T05:28:10;12.00;99.90
14079;DHT22;7115;50.150;8.568;2023-04-30T05:30:37;12.00;99.90
14079;DHT22;7115;50.150;8.568;2023-04-30T05:33:04;12.10;99.90
14079;DHT22;7115;50.150;8.568;2023-04-30T05:35:31;12.20;99.90
14079;DHT22;7115;50.150;8.568;2023-04-30T05:38:01;12.20;99.90
14079;DHT22;7115;50.150;8.568;2023-04-30T05:40:29;12.30;99.90
14079;DHT22;7115;50.150;8.568;2023-04-30T05:42:57;12.30;99.90
14079;DHT22;7115;50.150;8.568;2023-04-30T05:45:24;12.40;99.90
14079;DHT22;7115;50.150;8.568;2023-04-30T05:47:51;12.50;99.90
14079;DHT22;7115;50.150;8.568;2023-04-30T05:50:18;12.50;99.90
14079;DHT22;7115;50.150;8.568;2023-04-30T05:52:45;12.50;99.90
14079;DHT22;7115;50.150;8.568;2023-04-30T05:55:12;12.60;99.90
14079;DHT22;7115;50.150;8.568;2023-04-30T05:57:39;12.60;99.90
14079;DHT22;7115;50.150;8.568;2023-04-30T06:00:08;12.70;99.90
14079;DHT22;7115;50.150;8.568;2023-04-30T06:02:35;12.80;99.90
14079;DHT22;7115;50.150;8.568;2023-04-30T06:05:03;12.80;99.90
14079;DHT22;7115;50.150;8.568;2023-04-30T06:07:30;12.90;99.90
14079;DHT22;7115;50.150;8.568;2023-04-30T06:09:57;12.90;99.90
14079;DHT22;7115;50.150;8.568;2023-04-30T06:12:24;13.00;99.90
14079;DHT22;7115;50.150;8.568;2023-04-30T06:14:51;13.10;99.90
14079;DHT22;7115;50.150;8.568;2023-04-30T06:17:20;13.10;99.90
14079;DHT22;7115;50.150;8.568;2023-04-30T06:19:47;13.20;99.90
14079;DHT22;7115;50.150;8.568;2023-04-30T06:22:13;13.30;99.90
14079;DHT22;7115;50.150;8.568;2023-04-30T06:24:40;13.30;99.90
14079;DHT22;7115;50.150;8.568;2023-04-30T06:27:07;13.40;99.90
14079;DHT22;7115;50.150;8.568;2023-04-30T06:29:34;13.40;99.90
14079;DHT22;7115;50.150;8.568;2023-04-30T06:32:01;13.50;99.90
14079;DHT22;7115;50.150;8.568;2023-04-30T06:34:29;13.50;99.90
14079;DHT22;7115;50.150;8.568;2023-04-30T06:36:56;13.60;99.90
14079;DHT22;7115;50.150;8.568;2023-04-30T06:39:23;13.60;99.90
14079;DHT22;7115;50.150;8.568;2023-04-30T06:41:50;13.80;99.90
14079;DHT22;7115;50.150;8.568;2023-04-30T06:44:17;13.90;99.90
14079;DHT22;7115;50.150;8.568;2023-04-30T06:46:44;14.00;99.90
14079;DHT22;7115;50.150;8.568;2023-04-30T06:49:11;14.20;99.90
14079;DHT22;7115;50.150;8.568;2023-04-30T06:51:40;14.30;99.90
14079;DHT22;7115;50.150;8.568;2023-04-30T06:54:07;14.50;99.90
14079;DHT22;7115;50.150;8.568;2023-04-30T06:56:34;14.60;99.90
14079;DHT22;7115;50.150;8.568;2023-04-30T06:59:01;14.80;99.90
14079;DHT22;7115;50.150;8.568;2023-04-30T07:01:27;14.80;99.90
14079;DHT22;7115;50.150;8.568;2023-04-30T07:03:54;14.90;99.90
14079;DHT22;7115;50.150;8.568;2023-04-30T07:06:22;15.00;99.90
14079;DHT22;7115;50.150;8.568;2023-04-30T07:08:50;15.10;99.90
14079;DHT22;7115;50.150;8.568;2023-04-30T07:11:17;15.20;99.90
14079;DHT22;7115;50.150;8.568;2023-04-30T07:13:44;15.30;99.90
14079;DHT22;7115;50.150;8.568;2023-04-30T07:16:11;15.40;99.90
14079;DHT22;7115;50.150;8.568;2023-04-30T07:18:38;15.50;99.90
14079;DHT22;7115;50.150;8.568;2023-04-30T07:21:06;15.60;99.90
14079;DHT22;7115;50.150;8.568;2023-04-30T07:23:34;15.70;99.90
14079;DHT22;7115;50.150;8.568;2023-04-30T07:26:02;15.90;99.90
14079;DHT22;7115;50.150;8.568;2023-04-30T07:28:29;16.00;99.90
14079;DHT22;7115;50.150;8.568;2023-04-30T07:30:56;16.20;99.90
14079;DHT22;7115;50.150;8.568;2023-04-30T07:33:23;16.30;99.90
14079;DHT22;7115;50.150;8.568;2023-04-30T07:35:50;16.40;99.90
14079;DHT22;7115;50.150;8.568;2023-04-30T07:38:17;16.60;99.90
14079;DHT22;7115;50.150;8.568;2023-04-30T07:40:44;16.50;99.90
14079;DHT22;7115;50.150;8.568;2023-04-30T07:43:13;16.80;99.90
14079;DHT22;7115;50.150;8.568;2023-04-30T07:45:40;16.90;99.70
14079;DHT22;7115;50.150;8.568;2023-04-30T07:48:08;17.00;99.50
14079;DHT22;7115;50.150;8.568;2023-04-30T07:50:34;17.00;99.40
14079;DHT22;7115;50.150;8.568;2023-04-30T07:53:02;17.00;99.20
14079;DHT22;7115;50.150;8.568;2023-04-30T07:55:30;17.10;99.10
14079;DHT22;7115;50.150;8.568;2023-04-30T07:57:57;17.10;99.00
14079;DHT22;7115;50.150;8.568;2023-04-30T08:00:26;17.00;98.90
14079;DHT22;7115;50.150;8.568;2023-04-30T08:02:55;17.00;98.70
14079;DHT22;7115;50.150;8.568;2023-04-30T08:05:22;17.00;98.70
14079;DHT22;7115;50.150;8.568;2023-04-30T08:07:49;17.00;98.70
14079;DHT22;7115;50.150;8.568;2023-04-30T08:10:15;17.10;98.70
14079;DHT22;7115;50.150;8.568;2023-04-30T08:12:42;17.20;98.70
14079;DHT22;7115;50.150;8.568;2023-04-30T08:15:10;17.30;98.50
14079;DHT22;7115;50.150;8.568;2023-04-30T08:17:38;17.30;98.40
14079;DHT22;7115;50.150;8.568;2023-04-30T08:20:06;17.30;98.30
14079;DHT22;7115;50.150;8.568;2023-04-30T08:22:33;17.30;98.30
14079;DHT22;7115;50.150;8.568;2023-04-30T08:25:00;17.40;98.20
14079;DHT22;7115;50.150;8.568;2023-04-30T08:27:29;17.40;98.20
14079;DHT22;7115;50.150;8.568;2023-04-30T08:29:56;17.40;98.20
14079;DHT22;7115;50.150;8.568;2023-04-30T08:32:23;17.50;98.30
14079;DHT22;7115;50.150;8.568;2023-04-30T08:34:52;17.60;98.20
14079;DHT22;7115;50.150;8.568;2023-04-30T08:37:20;17.70;98.10
14079;DHT22;7115;50.150;8.568;2023-04-30T08:39:47;17.80;97.90
14079;DHT22;7115;50.150;8.568;2023-04-30T08:42:14;17.90;97.80
14079;DHT22;7115;50.150;8.568;2023-04-30T08:44:43;18.00;97.80
14079;DHT22;7115;50.150;8.568;2023-04-30T08:47:12;18.10;97.70
14079;DHT22;7115;50.150;8.568;2023-04-30T08:49:40;18.20;97.50
14079;DHT22;7115;50.150;8.568;2023-04-30T08:52:08;18.30;97.50
14079;DHT22;7115;50.150;8.568;2023-04-30T08:54:36;18.40;97.40
14079;DHT22;7115;50.150;8.568;2023-04-30T08:57:04;18.40;97.40
14079;DHT22;7115;50.150;8.568;2023-04-30T08:59:31;18.40;97.40
14079;DHT22;7115;50.150;8.568;2023-04-30T09:01:59;18.50;97.40
14079;DHT22;7115;50.150;8.568;2023-04-30T09:04:27;18.50;97.40
14079;DHT22;7115;50.150;8.568;2023-04-30T09:06:54;18.70;97.20
14079;DHT22;7115;50.150;8.568;2023-04-30T09:09:29;18.70;97.00
14079;DHT22;7115;50.150;8.568;2023-04-30T09:12:11;18.80;97.00
14079;DHT22;7115;50.150;8.568;2023-04-30T09:14:57;18.90;96.90
14079;DHT22;7115;50.150;8.568;2023-04-30T09:17:25;19.00;96.80
14079;DHT22;7115;50.150;8.568;2023-04-30T09:19:52;19.10;96.70
14079;DHT22;7115;50.150;8.568;2023-04-30T09:22:21;19.20;96.60
14079;DHT22;7115;50.150;8.568;2023-04-30T09:24:51;19.40;96.40
14079;DHT22;7115;50.150;8.568;2023-04-30T09:27:21;19.50;96.20
14079;DHT22;7115;50.150;8.568;2023-04-30T09:29:48;19.70;95.90
14079;DHT22;7115;50.150;8.568;2023-04-30T09:32:15;19.80;95.60
14079;DHT22;7115;50.150;8.568;2023-04-30T09:34:42;19.80;95.30
14079;DHT22;7115;50.150;8.568;2023-04-30T09:37:09;19.80;95.00
14079;DHT22;7115;50.150;8.568;2023-04-30T09:39:47;19.80;95.00
14079;DHT22;7115;50.150;8.568;2023-04-30T09:42:17;19.90;94.80
14079;DHT22;7115;50.150;8.568;2023-04-30T09:44:45;20.00;94.80
14079;DHT22;7115;50.150;8.568;2023-04-30T09:47:14;20.10;94.60
14079;DHT22;7115;50.150;8.568;2023-04-30T09:49:42;20.20;94.50
14079;DHT22;7115;50.150;8.568;2023-04-30T09:52:10;20.30;94.20
14079;DHT22;7115;50.150;8.568;2023-04-30T09:54:37;20.50;93.90
14079;DHT22;7115;50.150;8.568;2023-04-30T09:57:05;20.60;93.70
14079;DHT22;7115;50.150;8.568;2023-04-30T09:59:40;20.60;93.60
14079;DHT22;7115;50.150;8.568;2023-04-30T10:02:08;20.70;93.60
14079;DHT22;7115;50.150;8.568;2023-04-30T10:04:37;20.90;93.50
14079;DHT22;7115;50.150;8.568;2023-04-30T10:07:07;21.10;93.20
14079;DHT22;7115;50.150;8.568;2023-04-30T10:09:39;21.30;92.80
14079;DHT22;7115;50.150;8.568;2023-04-30T10:12:10;21.40;92.30
14079;DHT22;7115;50.150;8.568;2023-04-30T10:14:42;21.30;92.00
14079;DHT22;7115;50.150;8.568;2023-04-30T10:17:13;21.20;91.90
14079;DHT22;7115;50.150;8.568;2023-04-30T10:19:45;21.30;91.70
14079;DHT22;7115;50.150;8.568;2023-04-30T10:22:14;21.40;91.20
14079;DHT22;7115;50.150;8.568;2023-04-30T10:24:42;21.40;90.90
14079;DHT22;7115;50.150;8.568;2023-04-30T10:27:10;21.40;90.90
14079;DHT22;7115;50.150;8.568;2023-04-30T10:29:37;21.30;90.80
14079;DHT22;7115;50.150;8.568;2023-04-30T10:32:06;21.30;90.90
14079;DHT22;7115;50.150;8.568;2023-04-30T10:34:40;21.40;91.00
14079;DHT22;7115;50.150;8.568;2023-04-30T10:37:16;21.50;90.90
14079;DHT22;7115;50.150;8.568;2023-04-30T10:39:45;21.60;90.80
14079;DHT22;7115;50.150;8.568;2023-04-30T10:42:12;21.70;90.80
14079;DHT22;7115;50.150;8.568;2023-04-30T10:44:39;21.90;90.70
14079;DHT22;7115;50.150;8.568;2023-04-30T10:47:07;22.10;90.30
14079;DHT22;7115;50.150;8.568;2023-04-30T10:49:34;22.30;90.00
14079;DHT22;7115;50.150;8.568;2023-04-30T10:52:03;22.40;89.70
14079;DHT22;7115;50.150;8.568;2023-04-30T10:54:32;22.50;88.90
14079;DHT22;7115;50.150;8.568;2023-04-30T10:57:12;22.70;88.20
14079;DHT22;7115;50.150;8.568;2023-04-30T10:59:50;22.80;87.40
14079;DHT22;7115;50.150;8.568;2023-04-30T11:02:18;23.00;86.80
14079;DHT22;7115;50.150;8.568;2023-04-30T11:05:07;22.90;86.20
14079;DHT22;7115;50.150;8.568;2023-04-30T11:07:34;22.70;85.80
14079;DHT22;7115;50.150;8.568;2023-04-30T11:10:02;22.70;86.00
14079;DHT22;7115;50.150;8.568;2023-04-30T11:12:29;22.90;85.70
14079;DHT22;7115;50.150;8.568;2023-04-30T11:15:04;23.00;85.30
14079;DHT22;7115;50.150;8.568;2023-04-30T11:17:33;23.20;85.10
14079;DHT22;7115;50.150;8.568;2023-04-30T11:20:00;23.30;84.60
14079;DHT22;7115;50.150;8.568;2023-04-30T11:22:28;23.30;84.10
14079;DHT22;7115;50.150;8.568;2023-04-30T11:25:03;23.50;83.70
14079;DHT22;7115;50.150;8.568;2023-04-30T11:27:32;23.80;83.40
14079;DHT22;7115;50.150;8.568;2023-04-30T11:30:01;24.10;82.70
14079;DHT22;7115;50.150;8.568;2023-04-30T11:32:33;24.30;81.80
14079;DHT22;7115;50.150;8.568;2023-04-30T11:35:01;24.70;80.90
14079;DHT22;7115;50.150;8.568;2023-04-30T11:37:31;25.10;79.90
14079;DHT22;7115;50.150;8.568;2023-04-30T11:40:00;25.40;78.50
14079;DHT22;7115;50.150;8.568;2023-04-30T11:42:28;25.20;77.00
14079;DHT22;7115;50.150;8.568;2023-04-30T11:45:02;25.10;76.90
14079;DHT22;7115;50.150;8.568;2023-04-30T11:47:39;25.30;77.20
14079;DHT22;7115;50.150;8.568;2023-04-30T11:50:07;25.70;76.80
14079;DHT22;7115;50.150;8.568;2023-04-30T11:52:34;25.90;75.90
14079;DHT22;7115;50.150;8.568;2023-04-30T11:55:05;26.10;74.70
14079;DHT22;7115;50.150;8.568;2023-04-30T11:57:38;26.40;73.90
14079;DHT22;7115;50.150;8.568;2023-04-30T12:00:13;26.70;73.30
14079;DHT22;7115;50.150;8.568;2023-04-30T12:02:44;26.90;71.40
14079;DHT22;7115;50.150;8.568;2023-04-30T12:05:15;26.90;70.80
14079;DHT22;7115;50.150;8.568;2023-04-30T12:07:46;27.00;69.60
14079;DHT22;7115;50.150;8.568;2023-04-30T12:10:13;27.10;67.90
14079;DHT22;7115;50.150;8.568;2023-04-30T12:12:42;27.10;66.80
14079;DHT22;7115;50.150;8.568;2023-04-30T12:15:11;27.00;65.70
14079;DHT22;7115;50.150;8.568;2023-04-30T12:17:39;26.60;64.90
14079;DHT22;7115;50.150;8.568;2023-04-30T12:20:08;26.40;64.60
14079;DHT22;7115;50.150;8.568;2023-04-30T12:22:35;26.00;63.50
14079;DHT22;7115;50.150;8.568;2023-04-30T12:25:06;25.60;63.70
14079;DHT22;7115;50.150;8.568;2023-04-30T12:27:34;25.50;64.10
14079;DHT22;7115;50.150;8.568;2023-04-30T12:30:02;25.50;64.50
14079;DHT22;7115;50.150;8.568;2023-04-30T12:32:29;25.50;64.50
14079;DHT22;7115;50.150;8.568;2023-04-30T12:34:57;25.30;64.10
14079;DHT22;7115;50.150;8.568;2023-04-30T12:37:28;25.10;63.90
14079;DHT22;7115;50.150;8.568;2023-04-30T12:39:55;25.10;64.30
14079;DHT22;7115;50.150;8.568;2023-04-30T12:42:23;25.00;64.50
14079;DHT22;7115;50.150;8.568;2023-04-30T12:44:50;24.90;64.20
14079;DHT22;7115;50.150;8.568;2023-04-30T12:47:17;24.70;64.10
14079;DHT22;7115;50.150;8.568;2023-04-30T12:49:44;24.70;64.50
14079;DHT22;7115;50.150;8.568;2023-04-30T12:52:12;24.70;64.80
14079;DHT22;7115;50.150;8.568;2023-04-30T12:54:42;24.80;64.80
14079;DHT22;7115;50.150;8.568;2023-04-30T12:57:10;24.90;64.90
14079;DHT22;7115;50.150;8.568;2023-04-30T12:59:39;25.00;64.90
14079;DHT22;7115;50.150;8.568;2023-04-30T13:02:08;25.00;64.80
14079;DHT22;7115;50.150;8.568;2023-04-30T13:04:36;25.10;64.40
14079;DHT22;7115;50.150;8.568;2023-04-30T13:07:03;25.30;63.90
14079;DHT22;7115;50.150;8.568;2023-04-30T13:09:31;25.40;63.70
14079;DHT22;7115;50.150;8.568;2023-04-30T13:11:59;25.40;64.00
14079;DHT22;7115;50.150;8.568;2023-04-30T13:14:27;25.40;64.20
14079;DHT22;7115;50.150;8.568;2023-04-30T13:16:54;25.40;64.20
14079;DHT22;7115;50.150;8.568;2023-04-30T13:19:21;25.40;64.10
14079;DHT22;7115;50.150;8.568;2023-04-30T13:21:48;25.50;64.10
14079;DHT22;7115;50.150;8.568;2023-04-30T13:24:15;25.50;63.80
14079;DHT22;7115;50.150;8.568;2023-04-30T13:26:43;25.60;63.30
14079;DHT22;7115;50.150;8.568;2023-04-30T13:29:11;25.50;63.30
14079;DHT22;7115;50.150;8.568;2023-04-30T13:31:38;25.30;63.50
14079;DHT22;7115;50.150;8.568;2023-04-30T13:34:05;25.20;63.60
14079;DHT22;7115;50.150;8.568;2023-04-30T13:36:32;25.10;63.80
14079;DHT22;7115;50.150;8.568;2023-04-30T13:38:59;24.90;63.80
14079;DHT22;7115;50.150;8.568;2023-04-30T13:41:26;24.70;63.90
14079;DHT22;7115;50.150;8.568;2023-04-30T13:43:53;24.40;64.10
14079;DHT22;7115;50.150;8.568;2023-04-30T13:46:21;24.20;64.40
14079;DHT22;7115;50.150;8.568;2023-04-30T13:48:49;24.10;64.70
14079;DHT22;7115;50.150;8.568;2023-04-30T13:51:18;24.00;64.90
14079;DHT22;7115;50.150;8.568;2023-04-30T13:53:45;24.00;65.00
14079;DHT22;7115;50.150;8.568;2023-04-30T13:56:12;24.00;65.10
14079;DHT22;7115;50.150;8.568;2023-04-30T13:58:41;23.90;65.00
14079;DHT22;7115;50.150;8.568;2023-04-30T14:01:08;23.90;65.30
14079;DHT22;7115;50.150;8.568;2023-04-30T14:03:37;23.80;65.60
14079;DHT22;7115;50.150;8.568;2023-04-30T14:06:04;23.80;66.00
14079;DHT22;7115;50.150;8.568;2023-04-30T14:08:31;23.80;66.20
14079;DHT22;7115;50.150;8.568;2023-04-30T14:10:59;23.80;66.30
14079;DHT22;7115;50.150;8.568;2023-04-30T14:13:26;23.80;66.30
14079;DHT22;7115;50.150;8.568;2023-04-30T14:15:53;23.80;66.00
14079;DHT22;7115;50.150;8.568;2023-04-30T14:18:21;24.00;66.00
14079;DHT22;7115;50.150;8.568;2023-04-30T14:20:50;23.80;66.00
14079;DHT22;7115;50.150;8.568;2023-04-30T14:23:17;23.80;66.20
14079;DHT22;7115;50.150;8.568;2023-04-30T14:25:43;23.70;65.90
14079;DHT22;7115;50.150;8.568;2023-04-30T14:28:10;23.70;65.90
14079;DHT22;7115;50.150;8.568;2023-04-30T14:30:38;23.50;66.00
14079;DHT22;7115;50.150;8.568;2023-04-30T14:33:05;23.50;66.10
14079;DHT22;7115;50.150;8.568;2023-04-30T14:35:32;23.40;66.30
14079;DHT22;7115;50.150;8.568;2023-04-30T14:38:00;23.40;66.60
14079;DHT22;7115;50.150;8.568;2023-04-30T14:40:27;23.30;66.70
14079;DHT22;7115;50.150;8.568;2023-04-30T14:42:54;23.30;67.70
14079;DHT22;7115;50.150;8.568;2023-04-30T14:45:21;23.30;67.10
14079;DHT22;7115;50.150;8.568;2023-04-30T14:47:48;23.30;67.10
14079;DHT22;7115;50.150;8.568;2023-04-30T14:50:15;23.30;67.20
14079;DHT22;7115;50.150;8.568;2023-04-30T14:52:42;23.40;67.40
14079;DHT22;7115;50.150;8.568;2023-04-30T14:55:11;23.40;67.30
14079;DHT22;7115;50.150;8.568;2023-04-30T14:57:37;23.30;67.10
14079;DHT22;7115;50.150;8.568;2023-04-30T15:00:05;23.30;67.00
14079;DHT22;7115;50.150;8.568;2023-04-30T15:02:32;23.20;67.10
14079;DHT22;7115;50.150;8.568;2023-04-30T15:04:59;23.10;67.20
14079;DHT22;7115;50.150;8.568;2023-04-30T15:07:26;23.00;67.30
14079;DHT22;7115;50.150;8.568;2023-04-30T15:09:53;23.00;67.50
14079;DHT22;7115;50.150;8.568;2023-04-30T15:12:22;23.00;67.80
14079;DHT22;7115;50.150;8.568;2023-04-30T15:14:49;23.10;67.70
14079;DHT22;7115;50.150;8.568;2023-04-30T15:17:16;23.10;67.60
14079;DHT22;7115;50.150;8.568;2023-04-30T15:19:43;23.20;67.30
14079;DHT22;7115;50.150;8.568;2023-04-30T15:22:10;23.20;67.10
14079;DHT22;7115;50.150;8.568;2023-04-30T15:24:37;23.20;67.10
14079;DHT22;7115;50.150;8.568;2023-04-30T15:27:04;23.20;67.20
14079;DHT22;7115;50.150;8.568;2023-04-30T15:29:32;23.00;67.30
14079;DHT22;7115;50.150;8.568;2023-04-30T15:31:59;22.90;67.40
14079;DHT22;7115;50.150;8.568;2023-04-30T15:34:26;22.70;67.60
14079;DHT22;7115;50.150;8.568;2023-04-30T15:36:54;22.60;67.90
14079;DHT22;7115;50.150;8.568;2023-04-30T15:39:24;22.50;68.10
14079;DHT22;7115;50.150;8.568;2023-04-30T15:41:52;22.30;68.30
14079;DHT22;7115;50.150;8.568;2023-04-30T15:44:19;22.20;68.50
14079;DHT22;7115;50.150;8.568;2023-04-30T15:46:47;22.10;68.90
14079;DHT22;7115;50.150;8.568;2023-04-30T15:49:15;22.00;69.50
14079;DHT22;7115;50.150;8.568;2023-04-30T15:51:42;22.00;70.00